sensor_id;sensor_type;location;lat;lon;timestamp;pressure;altitude;pressure_sealevel;temperature;humidity
57779;BME280;43608;49.486;9.640;2023-04-20T00:00:02;98787.84;;;0.55;78.89
57779;BME280;43608;49.486;9.640;2023-04-20T00:00:40;98797.59;;;0.60;79.18
57779;BME280;43608;49.486;9.640;2023-04-20T00:01:12;98787.88;;;0.56;79.40
57779;BME280;43608;49.486;9.640;2023-04-20T00:01:42;98777.13;;;0.47;79.28
57779;BME280;43608;49.486;9.640;2023-04-20T00:02:12;98788.81;;;0.58;79.40
57779;BME280;43608;49.486;9.640;2023-04-20T00:02:44;98783.44;;;0.54;79.32
57779;BME280;43608;49.486;9.640;2023-04-20T00:03:15;98786.06;;;0.54;79.44
57779;BME280;43608;49.486;9.640;2023-04-20T00:03:50;98782.47;;;0.52;79.55
57779;BME280;43608;49.486;9.640;2023-04-20T00:04:20;98796.78;;;0.61;79.43
57779;BME280;43608;49.486;9.640;2023-04-20T00:04:51;98802.81;;;0.60;79.75
57779;BME280;43608;49.486;9.640;2023-04-20T00:05:22;98796.69;;;0.60;79.58
57779;BME280;43608;49.486;9.640;2023-04-20T00:05:52;98770.94;;;0.45;79.53
57779;BME280;43608;49.486;9.640;2023-04-20T00:06:25;98793.06;;;0.55;79.79
57779;BME280;43608;49.486;9.640;2023-04-20T00:06:58;98768.09;;;0.39;79.95
57779;BME280;43608;49.486;9.640;2023-04-20T00:07:29;98785.91;;;0.51;80.25
57779;BME280;43608;49.486;9.640;2023-04-20T00:08:00;98801.84;;;0.58;79.85
57779;BME280;43608;49.486;9.640;2023-04-20T00:08:31;98795.72;;;0.56;80.26
57779;BME280;43608;49.486;9.640;2023-04-20T00:09:01;98785.91;;;0.51;80.08
57779;BME280;43608;49.486;9.640;2023-04-20T00:09:33;98781.38;;;0.45;80.31
57779;BME280;43608;49.486;9.640;2023-04-20T00:10:04;98771.75;;;0.44;80.52
57779;BME280;43608;49.486;9.640;2023-04-20T00:10:35;98768.28;;;0.43;80.28
57779;BME280;43608;49.486;9.640;2023-04-20T00:11:05;98798.38;;;0.58;80.47
57779;BME280;43608;49.486;9.640;2023-04-20T00:11:35;98779.72;;;0.47;80.23
57779;BME280;43608;49.486;9.640;2023-04-20T00:12:06;98785.22;;;0.55;80.41
57779;BME280;43608;49.486;9.640;2023-04-20T00:12:36;98755.06;;;0.39;80.36
57779;BME280;43608;49.486;9.640;2023-04-20T00:13:07;98785.31;;;0.58;80.73
57779;BME280;43608;49.486;9.640;2023-04-20T00:13:37;98779.94;;;0.53;80.21
57779;BME280;43608;49.486;9.640;2023-04-20T00:14:07;98779.09;;;0.54;80.30
57779;BME280;43608;49.486;9.640;2023-04-20T00:14:38;98784.50;;;0.59;80.41
57779;BME280;43608;49.486;9.640;2023-04-20T00:15:09;98762.25;;;0.44;80.40
57779;BME280;43608;49.486;9.640;2023-04-20T00:15:39;98776.53;;;0.56;80.56
57779;BME280;43608;49.486;9.640;2023-04-20T00:16:09;98765.91;;;0.49;80.37
57779;BME280;43608;49.486;9.640;2023-04-20T00:16:40;98761.47;;;0.47;80.60
57779;BME280;43608;49.486;9.640;2023-04-20T00:17:11;98757.19;;;0.49;80.80
57779;BME280;43608;49.486;9.640;2023-04-20T00:17:41;98775.81;;;0.60;80.74
57779;BME280;43608;49.486;9.640;2023-04-20T00:18:13;98768.72;;;0.56;80.39
57779;BME280;43608;49.486;9.640;2023-04-20T00:18:47;98773.22;;;0.60;80.61
57779;BME280;43608;49.486;9.640;2023-04-20T00:19:17;98760.75;;;0.51;80.25
57779;BME280;43608;49.486;9.640;2023-04-20T00:19:48;98758.97;;;0.50;80.41
57779;BME280;43608;49.486;9.640;2023-04-20T00:20:18;98756.41;;;0.52;80.06
57779;BME280;43608;49.486;9.640;2023-04-20T00:20:49;98753.84;;;0.53;80.22
57779;BME280;43608;49.486;9.640;2023-04-20T00:21:19;98759.19;;;0.56;79.96
57779;BME280;43608;49.486;9.640;2023-04-20T00:21:53;98759.97;;;0.54;79.97
57779;BME280;43608;49.486;9.640;2023-04-20T00:22:24;98760.97;;;0.57;79.97
57779;BME280;43608;49.486;9.640;2023-04-20T00:22:55;98743.22;;;0.47;79.91
57779;BME280;43608;49.486;9.640;2023-04-20T00:23:25;98752.97;;;0.53;80.14
57779;BME280;43608;49.486;9.640;2023-04-20T00:23:56;98772.38;;;0.61;79.78
57779;BME280;43608;49.486;9.640;2023-04-20T00:24:26;98752.97;;;0.53;79.90
57779;BME280;43608;49.486;9.640;2023-04-20T00:24:56;98735.31;;;0.45;80.17
57779;BME280;43608;49.486;9.640;2023-04-20T00:25:27;98744.13;;;0.49;80.06
57779;BME280;43608;49.486;9.640;2023-04-20T00:25:57;98757.47;;;0.57;79.91
57779;BME280;43608;49.486;9.640;2023-04-20T00:26:27;98741.44;;;0.46;80.00
57779;BME280;43608;49.486;9.640;2023-04-20T00:26:58;98749.41;;;0.51;79.81
57779;BME280;43608;49.486;9.640;2023-04-20T00:27:28;98751.19;;;0.52;79.51
57779;BME280;43608;49.486;9.640;2023-04-20T00:27:59;98760.16;;;0.60;79.52
57779;BME280;43608;49.486;9.640;2023-04-20T00:28:29;98746.88;;;0.52;79.98
57779;BME280;43608;49.486;9.640;2023-04-20T00:29:00;98761.06;;;0.60;80.04
57779;BME280;43608;49.486;9.640;2023-04-20T00:29:30;98744.19;;;0.51;79.91
57779;BME280;43608;49.486;9.640;2023-04-20T00:30:01;98756.69;;;0.59;79.96
57779;BME280;43608;49.486;9.640;2023-04-20T00:30:31;98748.75;;;0.56;79.81
57779;BME280;43608;49.486;9.640;2023-04-20T00:31:02;98748.81;;;0.58;80.19
57779;BME280;43608;49.486;9.640;2023-04-20T00:31:32;98740.81;;;0.53;80.00
57779;BME280;43608;49.486;9.640;2023-04-20T00:32:02;98728.34;;;0.44;80.31
57779;BME280;43608;49.486;9.640;2023-04-20T00:32:33;98737.22;;;0.49;80.03
57779;BME280;43608;49.486;9.640;2023-04-20T00:33:03;98740.72;;;0.50;80.20
57779;BME280;43608;49.486;9.640;2023-04-20T00:33:33;98753.19;;;0.59;80.28
57779;BME280;43608;49.486;9.640;2023-04-20T00:34:04;98754.06;;;0.59;80.06
57779;BME280;43608;49.486;9.640;2023-04-20T00:34:34;98734.66;;;0.51;80.19
57779;BME280;43608;49.486;9.640;2023-04-20T00:35:05;98742.78;;;0.59;80.02
57779;BME280;43608;49.486;9.640;2023-04-20T00:35:35;98730.22;;;0.48;80.05
57779;BME280;43608;49.486;9.640;2023-04-20T00:36:06;98749.69;;;0.58;80.06
57779;BME280;43608;49.486;9.640;2023-04-20T00:36:36;98684.09;;;0.23;80.36
57779;BME280;43608;49.486;9.640;2023-04-20T00:37:07;98734.63;;;0.49;80.42
57779;BME280;43608;49.486;9.640;2023-04-20T00:37:37;98739.94;;;0.53;80.33
57779;BME280;43608;49.486;9.640;2023-04-20T00:38:07;98737.31;;;0.53;80.27
57779;BME280;43608;49.486;9.640;2023-04-20T00:38:38;98725.78;;;0.46;80.41
57779;BME280;43608;49.486;9.640;2023-04-20T00:39:08;98734.72;;;0.53;80.57
57779;BME280;43608;49.486;9.640;2023-04-20T00:39:39;98745.44;;;0.60;80.34
57779;BME280;43608;49.486;9.640;2023-04-20T00:40:10;98709.97;;;0.41;80.64
57779;BME280;43608;49.486;9.640;2023-04-20T00:40:44;98729.44;;;0.51;80.74
57779;BME280;43608;49.486;9.640;2023-04-20T00:41:18;98733.06;;;0.55;80.61
57779;BME280;43608;49.486;9.640;2023-04-20T00:41:48;98695.78;;;0.33;80.51
57779;BME280;43608;49.486;9.640;2023-04-20T00:42:18;98738.34;;;0.56;80.15
57779;BME280;43608;49.486;9.640;2023-04-20T00:42:49;98718.88;;;0.48;80.49
57779;BME280;43608;49.486;9.640;2023-04-20T00:43:20;98741.09;;;0.61;80.61
57779;BME280;43608;49.486;9.640;2023-04-20T00:43:51;98733.94;;;0.55;80.41
57779;BME280;43608;49.486;9.640;2023-04-20T00:44:22;98732.28;;;0.57;80.50
57779;BME280;43608;49.486;9.640;2023-04-20T00:44:52;98727.84;;;0.55;80.62
57779;BME280;43608;49.486;9.640;2023-04-20T00:45:23;98734.91;;;0.57;80.45
57779;BME280;43608;49.486;9.640;2023-04-20T00:45:53;98734.00;;;0.57;80.65
57779;BME280;43608;49.486;9.640;2023-04-20T00:46:24;98732.22;;;0.56;80.55
57779;BME280;43608;49.486;9.640;2023-04-20T00:46:54;98719.78;;;0.48;80.27
57779;BME280;43608;49.486;9.640;2023-04-20T00:47:26;98736.66;;;0.58;80.15
57779;BME280;43608;49.486;9.640;2023-04-20T00:47:56;98734.94;;;0.59;80.43
57779;BME280;43608;49.486;9.640;2023-04-20T00:48:27;98745.47;;;0.62;80.48
57779;BME280;43608;49.486;9.640;2023-04-20T00:48:57;98724.34;;;0.54;80.23
57779;BME280;43608;49.486;9.640;2023-04-20T00:49:29;98740.31;;;0.63;80.57
57779;BME280;43608;49.486;9.640;2023-04-20T00:50:00;98741.13;;;0.62;80.64
57779;BME280;43608;49.486;9.640;2023-04-20T00:50:31;98723.31;;;0.51;80.32
57779;BME280;43608;49.486;9.640;2023-04-20T00:51:02;98732.34;;;0.59;80.47
57779;BME280;43608;49.486;9.640;2023-04-20T00:51:33;98698.59;;;0.39;80.51
57779;BME280;43608;49.486;9.640;2023-04-20T00:52:04;98737.56;;;0.59;80.49
57779;BME280;43608;49.486;9.640;2023-04-20T00:52:35;98743.75;;;0.62;80.32
57779;BME280;43608;49.486;9.640;2023-04-20T00:53:06;98741.13;;;0.62;80.40
57779;BME280;43608;49.486;9.640;2023-04-20T00:53:37;98724.34;;;0.54;80.71
57779;BME280;43608;49.486;9.640;2023-04-20T00:54:08;98717.25;;;0.50;80.39
57779;BME280;43608;49.486;9.640;2023-04-20T00:54:38;98712.78;;;0.47;80.56
57779;BME280;43608;49.486;9.640;2023-04-20T00:55:09;98735.00;;;0.60;80.63
57779;BME280;43608;49.486;9.640;2023-04-20T00:55:42;98734.03;;;0.58;80.67
57779;BME280;43608;49.486;9.640;2023-04-20T00:56:13;98741.09;;;0.61;80.34
57779;BME280;43608;49.486;9.640;2023-04-20T00:56:44;98725.16;;;0.53;80.38
57779;BME280;43608;49.486;9.640;2023-04-20T00:57:17;98733.22;;;0.59;80.73
57779;BME280;43608;49.486;9.640;2023-04-20T00:57:48;98719.91;;;0.52;80.60
57779;BME280;43608;49.486;9.640;2023-04-20T00:58:20;98708.25;;;0.42;80.44
57779;BME280;43608;49.486;9.640;2023-04-20T00:58:50;98730.47;;;0.55;80.43
57779;BME280;43608;49.486;9.640;2023-04-20T00:59:21;98722.50;;;0.52;80.55
57779;BME280;43608;49.486;9.640;2023-04-20T00:59:51;98712.75;;;0.46;80.85
57779;BME280;43608;49.486;9.640;2023-04-20T01:00:22;98733.94;;;0.55;80.64
57779;BME280;43608;49.486;9.640;2023-04-20T01:00:52;98725.16;;;0.53;80.81
57779;BME280;43608;49.486;9.640;2023-04-20T01:01:23;98720.81;;;0.52;80.63
57779;BME280;43608;49.486;9.640;2023-04-20T01:01:53;98717.19;;;0.48;80.70
57779;BME280;43608;49.486;9.640;2023-04-20T01:02:24;98703.03;;;0.42;80.72
57779;BME280;43608;49.486;9.640;2023-04-20T01:02:54;98726.03;;;0.52;80.44
57779;BME280;43608;49.486;9.640;2023-04-20T01:03:25;98715.47;;;0.49;80.64
57779;BME280;43608;49.486;9.640;2023-04-20T01:03:56;98718.97;;;0.49;80.91
57779;BME280;43608;49.486;9.640;2023-04-20T01:04:26;98703.91;;;0.42;80.89
57779;BME280;43608;49.486;9.640;2023-04-20T01:04:57;98717.25;;;0.50;80.71
57779;BME280;43608;49.486;9.640;2023-04-20T01:05:28;98700.31;;;0.39;80.47
57779;BME280;43608;49.486;9.640;2023-04-20T01:05:58;98728.69;;;0.54;80.80
57779;BME280;43608;49.486;9.640;2023-04-20T01:06:29;98722.56;;;0.53;80.72
57779;BME280;43608;49.486;9.640;2023-04-20T01:06:59;98720.84;;;0.54;80.81
57779;BME280;43608;49.486;9.640;2023-04-20T01:07:30;98710.25;;;0.49;80.89
57779;BME280;43608;49.486;9.640;2023-04-20T01:08:01;98689.88;;;0.39;80.69
57779;BME280;43608;49.486;9.640;2023-04-20T01:08:31;98713.66;;;0.48;81.04
57779;BME280;43608;49.486;9.640;2023-04-20T01:09:02;98633.75;;;0.00;80.73
57779;BME280;43608;49.486;9.640;2023-04-20T01:09:32;98722.50;;;0.52;81.05
57779;BME280;43608;49.486;9.640;2023-04-20T01:10:04;98712.75;;;0.46;80.97
57779;BME280;43608;49.486;9.640;2023-04-20T01:10:34;98719.84;;;0.50;80.79
57779;BME280;43608;49.486;9.640;2023-04-20T01:11:05;98705.56;;;0.40;80.83
57779;BME280;43608;49.486;9.640;2023-04-20T01:11:35;98704.03;;;0.45;80.83
57779;BME280;43608;49.486;9.640;2023-04-20T01:12:09;98710.13;;;0.46;81.29
57779;BME280;43608;49.486;9.640;2023-04-20T01:12:40;98682.59;;;0.30;80.75
57779;BME280;43608;49.486;9.640;2023-04-20T01:13:11;98680.91;;;0.30;81.08
57779;BME280;43608;49.486;9.640;2023-04-20T01:13:42;98703.09;;;0.43;81.18
57779;BME280;43608;49.486;9.640;2023-04-20T01:14:12;98709.09;;;0.41;81.34
57779;BME280;43608;49.486;9.640;2023-04-20T01:14:43;98687.75;;;0.28;81.10
57779;BME280;43608;49.486;9.640;2023-04-20T01:15:13;98685.28;;;0.31;81.23
57779;BME280;43608;49.486;9.640;2023-04-20T01:15:44;98692.38;;;0.36;81.40
57779;BME280;43608;49.486;9.640;2023-04-20T01:16:14;98695.00;;;0.36;81.64
57779;BME280;43608;49.486;9.640;2023-04-20T01:16:45;98706.56;;;0.44;81.45
57779;BME280;43608;49.486;9.640;2023-04-20T01:17:16;98703.03;;;0.42;81.55
57779;BME280;43608;49.486;9.640;2023-04-20T01:17:46;98699.38;;;0.37;81.17
57779;BME280;43608;49.486;9.640;2023-04-20T01:18:18;98694.84;;;0.32;81.09
57779;BME280;43608;49.486;9.640;2023-04-20T01:18:49;98703.75;;;0.38;81.36
57779;BME280;43608;49.486;9.640;2023-04-20T01:19:20;98708.94;;;0.38;81.27
57779;BME280;43608;49.486;9.640;2023-04-20T01:19:50;98695.88;;;0.36;81.45
57779;BME280;43608;49.486;9.640;2023-04-20T01:20:21;98702.09;;;0.40;81.33
57779;BME280;43608;49.486;9.640;2023-04-20T01:20:52;98700.31;;;0.39;81.27
57779;BME280;43608;49.486;9.640;2023-04-20T01:21:23;98704.47;;;0.33;81.29
57779;BME280;43608;49.486;9.640;2023-04-20T01:21:53;98686.00;;;0.27;81.64
57779;BME280;43608;49.486;9.640;2023-04-20T01:22:23;98707.91;;;0.32;81.23
57779;BME280;43608;49.486;9.640;2023-04-20T01:22:54;98679.75;;;0.22;81.30
57779;BME280;43608;49.486;9.640;2023-04-20T01:23:24;98708.03;;;0.36;81.71
57779;BME280;43608;49.486;9.640;2023-04-20T01:23:55;98698.31;;;0.31;81.58
57779;BME280;43608;49.486;9.640;2023-04-20T01:24:25;98702.75;;;0.34;81.29
57779;BME280;43608;49.486;9.640;2023-04-20T01:24:56;98708.91;;;0.36;81.31
57779;BME280;43608;49.486;9.640;2023-04-20T01:25:27;98686.78;;;0.25;81.69
57779;BME280;43608;49.486;9.640;2023-04-20T01:25:57;98699.25;;;0.33;81.42
57779;BME280;43608;49.486;9.640;2023-04-20T01:26:27;98700.22;;;0.36;81.30
57779;BME280;43608;49.486;9.640;2023-04-20T01:26:58;98700.03;;;0.31;81.10
57779;BME280;43608;49.486;9.640;2023-04-20T01:27:29;98686.72;;;0.23;81.41
57779;BME280;43608;49.486;9.640;2023-04-20T01:27:59;98679.59;;;0.19;81.44
57779;BME280;43608;49.486;9.640;2023-04-20T01:28:31;98689.50;;;0.28;81.21
57779;BME280;43608;49.486;9.640;2023-04-20T01:29:01;98700.06;;;0.32;81.26
57779;BME280;43608;49.486;9.640;2023-04-20T01:29:31;98698.31;;;0.31;81.32
57779;BME280;43608;49.486;9.640;2023-04-20T01:30:03;98683.13;;;0.20;81.23
57779;BME280;43608;49.486;9.640;2023-04-20T01:30:33;98683.94;;;0.19;81.17
57779;BME280;43608;49.486;9.640;2023-04-20T01:31:05;98699.06;;;0.27;81.28
57779;BME280;43608;49.486;9.640;2023-04-20T01:31:36;98691.09;;;0.24;81.54
57779;BME280;43608;49.486;9.640;2023-04-20T01:32:06;98681.28;;;0.17;81.32
57779;BME280;43608;49.486;9.640;2023-04-20T01:32:37;98698.13;;;0.27;81.80
57779;BME280;43608;49.486;9.640;2023-04-20T01:33:08;98682.22;;;0.19;81.60
57779;BME280;43608;49.486;9.640;2023-04-20T01:33:38;98704.25;;;0.27;81.26
57779;BME280;43608;49.486;9.640;2023-04-20T01:34:09;98678.56;;;0.14;81.62
57779;BME280;43608;49.486;9.640;2023-04-20T01:34:40;98689.25;;;0.22;81.53
57779;BME280;43608;49.486;9.640;2023-04-20T01:35:11;98696.31;;;0.24;81.33
57779;BME280;43608;49.486;9.640;2023-04-20T01:35:41;98697.22;;;0.25;81.30
57779;BME280;43608;49.486;9.640;2023-04-20T01:36:12;98672.41;;;0.12;81.63
57779;BME280;43608;49.486;9.640;2023-04-20T01:36:43;98696.31;;;0.24;81.63
57779;BME280;43608;49.486;9.640;2023-04-20T01:37:14;98683.91;;;0.17;81.66
57779;BME280;43608;49.486;9.640;2023-04-20T01:37:44;98640.34;;;-0.10;81.45
57779;BME280;43608;49.486;9.640;2023-04-20T01:38:19;98666.91;;;0.04;81.62
57779;BME280;43608;49.486;9.640;2023-04-20T01:38:51;98691.03;;;0.23;81.65
57779;BME280;43608;49.486;9.640;2023-04-20T01:39:21;98683.94;;;0.19;81.64
57779;BME280;43608;49.486;9.640;2023-04-20T01:39:52;98688.34;;;0.20;81.84
57779;BME280;43608;49.486;9.640;2023-04-20T01:40:22;98689.16;;;0.19;81.77
57779;BME280;43608;49.486;9.640;2023-04-20T01:40:54;98634.06;;;-0.15;81.29
57779;BME280;43608;49.486;9.640;2023-04-20T01:41:24;98697.03;;;0.20;81.67
57779;BME280;43608;49.486;9.640;2023-04-20T01:41:56;98679.28;;;0.10;81.68
57779;BME280;43608;49.486;9.640;2023-04-20T01:42:27;98678.56;;;0.14;81.49
57779;BME280;43608;49.486;9.640;2023-04-20T01:42:57;98665.28;;;0.08;81.75
57779;BME280;43608;49.486;9.640;2023-04-20T01:43:27;98658.19;;;0.04;81.72
57779;BME280;43608;49.486;9.640;2023-04-20T01:43:58;98686.44;;;0.15;81.47
57779;BME280;43608;49.486;9.640;2023-04-20T01:44:28;98653.59;;;-0.04;81.36
57779;BME280;43608;49.486;9.640;2023-04-20T01:44:59;98686.44;;;0.15;81.67
57779;BME280;43608;49.486;9.640;2023-04-20T01:45:29;98676.78;;;0.13;81.62
57779;BME280;43608;49.486;9.640;2023-04-20T01:46:00;98665.25;;;0.06;81.26
57779;BME280;43608;49.486;9.640;2023-04-20T01:46:30;98676.91;;;0.16;81.31
57779;BME280;43608;49.486;9.640;2023-04-20T01:47:01;98649.44;;;0.02;81.73
57779;BME280;43608;49.486;9.640;2023-04-20T01:47:31;98688.22;;;0.16;81.72
57779;BME280;43608;49.486;9.640;2023-04-20T01:48:01;98678.69;;;0.17;81.31
57779;BME280;43608;49.486;9.640;2023-04-20T01:48:32;98678.69;;;0.17;81.38
57779;BME280;43608;49.486;9.640;2023-04-20T01:49:03;98669.03;;;0.14;81.31
57779;BME280;43608;49.486;9.640;2023-04-20T01:49:34;98661.81;;;0.07;81.48
57779;BME280;43608;49.486;9.640;2023-04-20T01:50:05;98677.72;;;0.15;81.30
57779;BME280;43608;49.486;9.640;2023-04-20T01:50:35;98672.47;;;0.13;81.27
57779;BME280;43608;49.486;9.640;2023-04-20T01:51:06;98673.19;;;0.09;81.47
57779;BME280;43608;49.486;9.640;2023-04-20T01:51:38;98652.06;;;0.02;81.36
57779;BME280;43608;49.486;9.640;2023-04-20T01:52:08;98665.41;;;0.11;81.87
57779;BME280;43608;49.486;9.640;2023-04-20T01:52:39;98668.84;;;0.10;81.55
57779;BME280;43608;49.486;9.640;2023-04-20T01:53:09;98660.03;;;0.06;81.51
57779;BME280;43608;49.486;9.640;2023-04-20T01:53:39;98674.28;;;0.16;81.64
57779;BME280;43608;49.486;9.640;2023-04-20T01:54:10;98672.41;;;0.12;81.50
57779;BME280;43608;49.486;9.640;2023-04-20T01:54:40;98676.91;;;0.16;81.44
57779;BME280;43608;49.486;9.640;2023-04-20T01:55:11;98657.47;;;0.08;81.78
57779;BME280;43608;49.486;9.640;2023-04-20T01:55:41;98673.38;;;0.15;81.50
57779;BME280;43608;49.486;9.640;2023-04-20T01:56:12;98597.13;;;-0.27;81.57
57779;BME280;43608;49.486;9.640;2023-04-20T01:56:42;98671.56;;;0.13;81.67
57779;BME280;43608;49.486;9.640;2023-04-20T01:57:12;98655.53;;;0.02;81.66
57779;BME280;43608;49.486;9.640;2023-04-20T01:57:43;98655.63;;;0.05;81.44
57779;BME280;43608;49.486;9.640;2023-04-20T01:58:14;98666.25;;;0.10;81.88
57779;BME280;43608;49.486;9.640;2023-04-20T01:58:44;98661.75;;;0.06;81.58
57779;BME280;43608;49.486;9.640;2023-04-20T01:59:15;98643.19;;;-0.04;81.86
57779;BME280;43608;49.486;9.640;2023-04-20T01:59:45;98646.84;;;0.02;81.67
57779;BME280;43608;49.486;9.640;2023-04-20T02:00:16;98664.22;;;0.03;82.01
57779;BME280;43608;49.486;9.640;2023-04-20T02:00:46;98647.44;;;-0.06;81.79
57779;BME280;43608;49.486;9.640;2023-04-20T02:01:16;98627.06;;;-0.16;81.93
57779;BME280;43608;49.486;9.640;2023-04-20T02:01:47;98648.50;;;-0.01;82.00
57779;BME280;43608;49.486;9.640;2023-04-20T02:02:17;98661.72;;;0.04;82.03
57779;BME280;43608;49.486;9.640;2023-04-20T02:02:48;98662.59;;;0.05;82.03
57779;BME280;43608;49.486;9.640;2023-04-20T02:03:18;98642.13;;;-0.09;81.74
57779;BME280;43608;49.486;9.640;2023-04-20T02:03:48;98659.00;;;0.03;81.62
57779;BME280;43608;49.486;9.640;2023-04-20T02:04:19;98657.31;;;0.03;81.62
57779;BME280;43608;49.486;9.640;2023-04-20T02:04:50;98653.81;;;0.03;81.65
57779;BME280;43608;49.486;9.640;2023-04-20T02:05:22;98661.53;;;-0.01;81.90
57779;BME280;43608;49.486;9.640;2023-04-20T02:05:52;98653.56;;;-0.05;81.83
57779;BME280;43608;49.486;9.640;2023-04-20T02:06:23;98661.53;;;-0.01;81.91
57779;BME280;43608;49.486;9.640;2023-04-20T02:06:53;98654.44;;;-0.05;82.00
57779;BME280;43608;49.486;9.640;2023-04-20T02:07:24;98653.56;;;-0.05;82.23
57779;BME280;43608;49.486;9.640;2023-04-20T02:07:54;98641.06;;;-0.14;82.23
57779;BME280;43608;49.486;9.640;2023-04-20T02:08:25;98665.81;;;-0.03;81.97
57779;BME280;43608;49.486;9.640;2023-04-20T02:08:55;98647.28;;;-0.10;82.16
57779;BME280;43608;49.486;9.640;2023-04-20T02:09:25;98651.78;;;-0.06;81.88
57779;BME280;43608;49.486;9.640;2023-04-20T02:09:56;98641.94;;;-0.13;81.77
57779;BME280;43608;49.486;9.640;2023-04-20T02:10:26;98647.34;;;-0.09;81.99
57779;BME280;43608;49.486;9.640;2023-04-20T02:10:56;98659.59;;;-0.06;82.18
57779;BME280;43608;49.486;9.640;2023-04-20T02:11:27;98647.97;;;-0.14;81.76
57779;BME280;43608;49.486;9.640;2023-04-20T02:11:57;98662.25;;;-0.05;81.73
57779;BME280;43608;49.486;9.640;2023-04-20T02:12:28;98661.38;;;-0.05;82.08
57779;BME280;43608;49.486;9.640;2023-04-20T02:12:58;98663.97;;;-0.05;81.78
57779;BME280;43608;49.486;9.640;2023-04-20T02:13:28;98654.25;;;-0.09;82.21
57779;BME280;43608;49.486;9.640;2023-04-20T02:13:59;98643.66;;;-0.14;82.12
57779;BME280;43608;49.486;9.640;2023-04-20T02:14:29;98650.72;;;-0.11;81.99
57779;BME280;43608;49.486;9.640;2023-04-20T02:15:00;98641.00;;;-0.15;81.76
57779;BME280;43608;49.486;9.640;2023-04-20T02:15:30;98645.31;;;-0.16;81.90
57779;BME280;43608;49.486;9.640;2023-04-20T02:16:00;98654.25;;;-0.09;82.17
57779;BME280;43608;49.486;9.640;2023-04-20T02:16:31;98660.31;;;-0.10;81.84
57779;BME280;43608;49.486;9.640;2023-04-20T02:17:01;98623.13;;;-0.29;82.13
57779;BME280;43608;49.486;9.640;2023-04-20T02:17:31;98647.97;;;-0.14;81.73
57779;BME280;43608;49.486;9.640;2023-04-20T02:18:02;98639.88;;;-0.22;81.92
57779;BME280;43608;49.486;9.640;2023-04-20T02:18:33;98644.38;;;-0.18;82.24
57779;BME280;43608;49.486;9.640;2023-04-20T02:19:03;98661.94;;;-0.12;81.86
57779;BME280;43608;49.486;9.640;2023-04-20T02:19:33;98643.44;;;-0.20;82.03
57779;BME280;43608;49.486;9.640;2023-04-20T02:20:04;98647.75;;;-0.21;82.20
57779;BME280;43608;49.486;9.640;2023-04-20T02:20:44;98650.28;;;-0.22;82.40
57779;BME280;43608;49.486;9.640;2023-04-20T02:21:15;98658.34;;;-0.16;82.24
57779;BME280;43608;49.486;9.640;2023-04-20T02:21:45;98621.91;;;-0.39;82.54
57779;BME280;43608;49.486;9.640;2023-04-20T02:22:15;98653.75;;;-0.23;82.36
57779;BME280;43608;49.486;9.640;2023-04-20T02:22:46;98618.34;;;-0.41;82.30
57779;BME280;43608;49.486;9.640;2023-04-20T02:23:16;98647.53;;;-0.27;82.71
57779;BME280;43608;49.486;9.640;2023-04-20T02:23:47;98634.31;;;-0.31;82.72
57779;BME280;43608;49.486;9.640;2023-04-20T02:24:17;98626.97;;;-0.42;82.46
57779;BME280;43608;49.486;9.640;2023-04-20T02:24:47;98653.59;;;-0.26;82.76
57779;BME280;43608;49.486;9.640;2023-04-20T02:25:20;98654.50;;;-0.26;82.60
57779;BME280;43608;49.486;9.640;2023-04-20T02:25:50;98651.72;;;-0.30;82.92
57779;BME280;43608;49.486;9.640;2023-04-20T02:26:21;98648.06;;;-0.36;82.59
57779;BME280;43608;49.486;9.640;2023-04-20T02:26:51;98645.59;;;-0.32;83.01
57779;BME280;43608;49.486;9.640;2023-04-20T02:27:21;98619.88;;;-0.46;82.94
57779;BME280;43608;49.486;9.640;2023-04-20T02:27:52;98640.13;;;-0.39;83.08
57779;BME280;43608;49.486;9.640;2023-04-20T02:28:22;98650.72;;;-0.34;82.83
57779;BME280;43608;49.486;9.640;2023-04-20T02:28:53;98634.78;;;-0.42;83.19
57779;BME280;43608;49.486;9.640;2023-04-20T02:29:23;98644.38;;;-0.41;83.13
57779;BME280;43608;49.486;9.640;2023-04-20T02:29:54;98648.06;;;-0.36;83.29
57779;BME280;43608;49.486;9.640;2023-04-20T02:30:25;98625.81;;;-0.50;83.27
57779;BME280;43608;49.486;9.640;2023-04-20T02:30:56;98649.53;;;-0.42;83.17
57779;BME280;43608;49.486;9.640;2023-04-20T02:31:26;98640.59;;;-0.49;83.19
57779;BME280;43608;49.486;9.640;2023-04-20T02:31:56;98637.84;;;-0.52;83.39
57779;BME280;43608;49.486;9.640;2023-04-20T02:32:27;98618.47;;;-0.60;83.36
57779;BME280;43608;49.486;9.640;2023-04-20T02:32:58;98624.75;;;-0.55;83.25
57779;BME280;43608;49.486;9.640;2023-04-20T02:33:28;98625.44;;;-0.59;83.37
57779;BME280;43608;49.486;9.640;2023-04-20T02:33:58;98638.81;;;-0.50;83.53
57779;BME280;43608;49.486;9.640;2023-04-20T02:34:29;98648.38;;;-0.51;83.30
57779;BME280;43608;49.486;9.640;2023-04-20T02:34:59;98640.41;;;-0.54;83.46
57779;BME280;43608;49.486;9.640;2023-04-20T02:35:30;98645.75;;;-0.51;83.40
57779;BME280;43608;49.486;9.640;2023-04-20T02:36:00;98624.44;;;-0.63;83.63
57779;BME280;43608;49.486;9.640;2023-04-20T02:36:30;98644.91;;;-0.50;83.61
57779;BME280;43608;49.486;9.640;2023-04-20T02:37:01;98636.78;;;-0.57;83.76
57779;BME280;43608;49.486;9.640;2023-04-20T02:37:31;98634.19;;;-0.57;83.63
57779;BME280;43608;49.486;9.640;2023-04-20T02:38:03;98648.28;;;-0.52;84.09
57779;BME280;43608;49.486;9.640;2023-04-20T02:38:33;98624.28;;;-0.68;83.84
57779;BME280;43608;49.486;9.640;2023-04-20T02:39:03;98636.69;;;-0.60;83.57
57779;BME280;43608;49.486;9.640;2023-04-20T02:39:35;98632.31;;;-0.61;83.80
57779;BME280;43608;49.486;9.640;2023-04-20T02:40:05;98642.97;;;-0.55;84.22
57779;BME280;43608;49.486;9.640;2023-04-20T02:40:36;98618.09;;;-0.70;84.13
57779;BME280;43608;49.486;9.640;2023-04-20T02:41:07;98637.59;;;-0.60;83.90
57779;BME280;43608;49.486;9.640;2023-04-20T02:41:37;98643.72;;;-0.58;84.34
57779;BME280;43608;49.486;9.640;2023-04-20T02:42:07;98647.16;;;-0.59;84.16
57779;BME280;43608;49.486;9.640;2023-04-20T02:42:38;98637.59;;;-0.60;84.38
57779;BME280;43608;49.486;9.640;2023-04-20T02:43:08;98606.44;;;-0.79;84.46
57779;BME280;43608;49.486;9.640;2023-04-20T02:43:39;98637.50;;;-0.61;84.28
57779;BME280;43608;49.486;9.640;2023-04-20T02:44:09;98639.19;;;-0.63;84.60